Terminal Aerodrome Forecast
Issued by NWS Anchorage, AK

Home | Current Version | Previous Version | Text Only | Print | Product List | Glossary On
Versions: 1 2 3 4 5 6 7 8 9 10 11 12 13 14 15 16 17 18 19 20 21 22 23 24 25 26 27 28 29 30 31 32 33 34 35 36 37 38 39 40 41 42 43 44 45 46 47 48
000
FTAK31 PANC 160532
TAFANC
TAF
PANC 160532Z 1606/1712 VRB03KT P6SM -SHRA BKN060 BKN100
      TEMPO 1606/1608 17008G15KT
     FM160800 16008G15KT P6SM -SHRA BKN060 BKN100
     FM161000 17008KT P6SM -SHRA BKN060 BKN100
     FM170000 16007G18KT P6SM VCSH BKN070
     FM170700 VRB06KT P6SM VCSH BKN070 WS012/13035KT=

USA.gov is the U.S. government's official web portal to all federal, state and local government web resources and services.